Time;durP1;ratioP1;P1;durP2;ratioP2;P2;SDS_P1;SDS_P2;PMS_P1;PMS_P2;Temp;Humidity;BMP_temperature;BMP_pressure;BME280_temperature;BME280_humidity;BME280_pressure;Samples;Min_cycle;Max_cycle;Signal;HPM_P1;HPM_P2
2023/06/01 00:01:46;;;;;;;7.65;2.22;;;12.60;99.90;;;;;;5052548;28;20040;-84
2023/06/01 00:04:13;;;;;;;7.03;2.13;;;11.60;99.90;;;;;;5069932;28;20044;-85
2023/06/01 00:06:39;;;;;;;12.05;2.78;;;11.60;99.90;;;;;;5051649;28;20117;-83
2023/06/01 00:09:05;;;;;;;8.93;2.60;;;11.60;99.90;;;;;;5052983;28;20076;-83
2023/06/01 00:11:31;;;;;;;8.50;2.58;;;11.60;99.90;;;;;;5052757;28;20093;-83
2023/06/01 00:13:57;;;;;;;9.35;2.80;;;12.30;99.90;;;;;;5068868;28;20165;-84
2023/06/01 00:16:23;;;;;;;11.07;2.55;;;11.60;99.90;;;;;;5069254;28;20040;-84
2023/06/01 00:18:51;;;;;;;5.07;2.47;;;11.80;99.90;;;;;;5068443;28;20090;-84
2023/06/01 00:21:17;;;;;;;6.82;2.38;;;11.60;99.90;;;;;;5036951;28;20044;-84
2023/06/01 00:23:42;;;;;;;11.82;2.78;;;11.60;99.90;;;;;;5068058;28;20486;-84
2023/06/01 00:26:08;;;;;;;6.93;2.40;;;11.60;99.90;;;;;;5087301;28;20047;-83
2023/06/01 00:28:34;;;;;;;9.85;2.38;;;11.60;99.90;;;;;;5068221;28;20032;-83
2023/06/01 00:31:00;;;;;;;5.75;2.42;;;11.60;99.90;;;;;;5051493;28;20040;-83
2023/06/01 00:33:26;;;;;;;5.68;2.30;;;11.60;99.90;;;;;;5069150;28;20051;-83
2023/06/01 00:35:52;;;;;;;8.77;3.15;;;11.50;99.90;;;;;;5033663;28;20143;-84
2023/06/01 00:38:18;;;;;;;8.35;2.85;;;11.50;99.90;;;;;;5051958;28;20044;-84
2023/06/01 00:40:44;;;;;;;5.85;2.08;;;11.50;99.90;;;;;;5034336;28;20036;-84
2023/06/01 00:43:10;;;;;;;5.43;2.95;;;11.50;99.90;;;;;;5068865;28;20048;-84
2023/06/01 00:45:40;;;;;;;4.88;2.25;;;11.50;99.90;;;;;;5035076;28;20143;-84
2023/06/01 00:48:06;;;;;;;5.80;2.03;;;12.50;99.90;;;;;;5051445;28;20044;-85
2023/06/01 00:50:32;;;;;;;8.95;2.63;;;11.50;99.90;;;;;;5051531;28;20517;-84
2023/06/01 00:53:00;;;;;;;9.80;2.47;;;11.50;99.90;;;;;;5034135;28;20052;-83
2023/06/01 00:55:27;;;;;;;6.60;3.05;;;11.50;99.90;;;;;;5067921;28;20106;-83
2023/06/01 00:57:54;;;;;;;7.70;3.03;;;11.50;99.90;;;;;;5066991;28;20072;-84
2023/06/01 01:00:22;;;;;;;9.38;2.85;;;11.50;99.90;;;;;;5052140;28;20113;-84
2023/06/01 01:02:49;;;;;;;7.53;2.85;;;11.50;99.90;;;;;;5067657;28;20615;-83
2023/06/01 01:05:15;;;;;;;10.02;3.35;;;11.50;99.90;;;;;;5067583;28;20075;-84
2023/06/01 01:07:53;;;;;;;6.95;3.05;;;11.40;99.90;;;;;;5034952;28;20073;-84
2023/06/01 01:10:31;;;;;;;10.00;2.90;;;11.40;99.90;;;;;;5067403;28;20059;-84
2023/06/01 01:13:04;;;;;;;9.73;3.63;;;11.40;99.90;;;;;;5068955;28;20088;-84
2023/06/01 01:15:49;;;;;;;9.23;3.08;;;11.50;99.90;;;;;;5050945;28;20044;-84
2023/06/01 01:18:54;;;;;;;10.32;3.38;;;11.50;99.90;;;;;;5050706;28;20036;-84
2023/06/01 01:21:27;;;;;;;9.88;3.47;;;11.50;99.90;;;;;;5066092;28;20170;-84
2023/06/01 01:24:24;;;;;;;8.73;2.80;;;11.50;99.90;;;;;;5066466;28;20051;-83
2023/06/01 01:27:08;;;;;;;6.75;3.38;;;11.50;99.90;;;;;;5050860;28;20047;-84
2023/06/01 01:29:36;;;;;;;10.32;3.03;;;11.50;99.90;;;;;;5051279;28;20440;-83
2023/06/01 01:32:05;;;;;;;5.53;2.78;;;11.50;99.90;;;;;;5067163;28;20127;-83
2023/06/01 01:34:32;;;;;;;11.38;2.92;;;11.50;99.90;;;;;;5068121;28;20063;-83
2023/06/01 01:36:59;;;;;;;7.68;2.85;;;11.50;99.90;;;;;;5049904;28;20241;-84
2023/06/01 01:39:24;;;;;;;8.18;3.65;;;11.50;99.90;;;;;;5050656;28;20507;-84
2023/06/01 01:41:50;;;;;;;9.70;2.42;;;11.50;99.90;;;;;;5017453;28;20120;-84
2023/06/01 01:44:16;;;;;;;8.77;2.80;;;11.40;99.90;;;;;;5033653;28;20050;-82
2023/06/01 01:46:54;;;;;;;9.13;3.25;;;11.40;99.90;;;;;;5067620;28;20055;-82
2023/06/01 01:49:37;;;;;;;9.50;2.72;;;11.40;99.90;;;;;;5049774;28;20047;-83
2023/06/01 01:52:12;;;;;;;8.05;3.35;;;11.50;99.90;;;;;;5067134;28;20054;-83
2023/06/01 01:54:43;;;;;;;10.38;3.13;;;11.50;99.90;;;;;;5050233;28;20478;-83
2023/06/01 01:57:10;;;;;;;9.32;2.67;;;12.00;99.90;;;;;;5050404;28;20071;-83
2023/06/01 01:59:37;;;;;;;8.00;3.35;;;11.50;99.90;;;;;;5050545;28;20058;-84
2023/06/01 02:02:03;;;;;;;7.97;2.63;;;11.50;99.90;;;;;;5049855;28;20052;-84
2023/06/01 02:04:30;;;;;;;5.82;3.03;;;11.50;99.90;;;;;;5050952;28;20036;-84
2023/06/01 02:06:55;;;;;;;4.97;1.85;;;11.50;99.90;;;;;;5065912;28;20294;-84
2023/06/01 02:09:21;;;;;;;6.05;1.70;;;11.40;99.90;;;;;;5033849;28;20408;-84
2023/06/01 02:11:47;;;;;;;5.47;1.60;;;11.60;99.90;;;;;;5049852;28;20202;-84
2023/06/01 02:14:12;;;;;;;4.38;1.50;;;11.40;99.90;;;;;;5066313;28;20048;-84
2023/06/01 02:16:38;;;;;;;4.30;1.67;;;11.40;99.90;;;;;;5033920;28;20120;-84
2023/06/01 02:19:04;;;;;;;4.38;2.05;;;11.40;99.90;;;;;;5016351;28;20047;-84
2023/06/01 02:21:31;;;;;;;4.57;1.90;;;11.40;99.90;;;;;;5033199;28;20144;-84
2023/06/01 02:24:04;;;;;;;7.22;2.05;;;11.50;99.90;;;;;;5048826;28;20040;-84
2023/06/01 02:26:30;;;;;;;;;;;11.50;99.90;;;;;;5035021;28;20044;-84
2023/06/01 02:28:56;;;;;;;7.38;1.63;;;12.50;99.90;;;;;;5049254;28;19927;-82
2023/06/01 02:31:22;;;;;;;10.25;1.98;;;11.80;99.90;;;;;;5065674;28;20123;-82
2023/06/01 02:33:49;;;;;;;7.50;1.83;;;11.40;99.90;;;;;;5049887;28;20185;-82
2023/06/01 02:36:16;;;;;;;4.50;2.03;;;11.50;99.90;;;;;;5065435;28;20073;-84
2023/06/01 02:38:42;;;;;;;6.38;1.98;;;11.50;99.90;;;;;;5066792;28;20054;-83
2023/06/01 02:41:08;;;;;;;6.20;2.20;;;11.50;99.90;;;;;;5065222;28;20047;-84
2023/06/01 02:43:36;;;;;;;5.32;1.70;;;11.50;99.90;;;;;;5084567;28;20047;-84
2023/06/01 02:46:03;;;;;;;5.20;2.50;;;11.50;99.90;;;;;;5065378;28;20075;-83
2023/06/01 02:48:29;;;;;;;6.15;1.88;;;11.50;99.90;;;;;;5065845;28;20116;-84
2023/06/01 02:50:55;;;;;;;4.00;1.70;;;12.60;99.90;;;;;;5066529;28;20622;-83
2023/06/01 02:53:21;;;;;;;6.82;1.67;;;11.50;99.90;;;;;;5048605;28;20521;-84
2023/06/01 02:55:47;;;;;;;5.97;2.15;;;11.50;99.90;;;;;;5066295;28;20051;-84
2023/06/01 02:58:16;;;;;;;5.00;2.05;;;11.50;99.90;;;;;;5064710;28;20097;-82
2023/06/01 03:00:45;;;;;;;8.00;2.30;;;11.50;99.90;;;;;;5065156;28;20044;-82
2023/06/01 03:03:11;;;;;;;6.82;2.92;;;11.50;99.90;;;;;;5048889;28;20048;-83
2023/06/01 03:05:37;;;;;;;4.85;2.33;;;11.50;99.90;;;;;;5032229;28;20071;-83
2023/06/01 03:08:04;;;;;;;9.13;2.85;;;11.50;99.90;;;;;;5066060;28;20426;-82
2023/06/01 03:10:31;;;;;;;7.47;2.65;;;11.50;99.90;;;;;;5065014;28;20482;-83
2023/06/01 03:12:57;;;;;;;9.70;2.90;;;11.50;99.90;;;;;;5065991;28;20456;-83
2023/06/01 03:15:27;;;;;;;7.65;2.63;;;11.50;99.90;;;;;;5063704;28;20067;-82
2023/06/01 03:17:53;;;;;;;8.32;2.53;;;11.50;99.90;;;;;;5065568;28;20040;-83
2023/06/01 03:20:19;;;;;;;6.90;2.78;;;11.50;99.90;;;;;;5048543;28;20084;-83
2023/06/01 03:22:46;;;;;;;10.30;2.58;;;11.50;99.90;;;;;;5048171;28;20120;-83
2023/06/01 03:25:12;;;;;;;5.15;2.08;;;12.00;99.90;;;;;;5065386;28;20040;-83
2023/06/01 03:27:39;;;;;;;8.43;2.60;;;11.40;99.90;;;;;;5064540;28;20067;-83
2023/06/01 03:30:09;;;;;;;13.73;2.63;;;11.40;99.90;;;;;;5049678;28;20513;-83
2023/06/01 03:32:39;;;;;;;6.45;2.53;;;11.40;99.90;;;;;;5049042;28;20044;-83
2023/06/01 03:35:09;;;;;;;7.35;2.65;;;12.80;99.90;;;;;;5065818;28;20132;-84
2023/06/01 03:37:36;;;;;;;7.18;2.35;;;11.50;99.90;;;;;;5065600;28;20496;-84
2023/06/01 03:40:12;;;;;;;6.15;2.50;;;11.40;99.90;;;;;;5065464;28;20547;-83
2023/06/01 03:42:41;;;;;;;7.50;2.38;;;11.50;99.90;;;;;;5050583;28;20112;-83
2023/06/01 03:45:07;;;;;;;7.80;2.30;;;11.50;99.90;;;;;;5048673;28;20040;-83
2023/06/01 03:47:33;;;;;;;6.80;2.83;;;11.40;99.90;;;;;;5066444;28;20050;-83
2023/06/01 03:50:01;;;;;;;11.65;4.00;;;11.40;99.90;;;;;;5048125;28;20040;-84
2023/06/01 03:52:27;;;;;;;8.82;2.65;;;11.40;99.90;;;;;;5049528;28;20083;-83
2023/06/01 03:54:55;;;;;;;5.38;2.40;;;12.30;99.90;;;;;;5049068;28;20048;-83
2023/06/01 03:57:21;;;;;;;7.32;2.47;;;11.40;99.90;;;;;;5048358;28;20055;-83
2023/06/01 03:59:46;;;;;;;6.82;2.50;;;11.50;99.90;;;;;;5065588;28;20056;-84
2023/06/01 04:02:12;;;;;;;6.75;2.80;;;12.50;99.90;;;;;;5049316;28;20072;-83
2023/06/01 04:04:40;;;;;;;7.18;2.42;;;11.50;99.90;;;;;;5066524;28;20714;-83
2023/06/01 04:07:09;;;;;;;8.43;2.53;;;11.50;99.90;;;;;;5065524;28;20063;-83
2023/06/01 04:09:37;;;;;;;10.50;2.55;;;11.50;99.90;;;;;;5065513;28;20058;-83
2023/06/01 04:12:03;;;;;;;12.88;2.78;;;11.50;99.90;;;;;;5035180;28;20079;-84
2023/06/01 04:14:29;;;;;;;9.52;2.25;;;11.50;99.90;;;;;;5068585;28;20082;-83
2023/06/01 04:16:55;;;;;;;7.28;2.70;;;11.50;99.90;;;;;;5069200;28;20094;-83
2023/06/01 04:19:21;;;;;;;10.52;2.75;;;11.50;99.90;;;;;;5052246;28;20044;-83
2023/06/01 04:21:47;;;;;;;6.30;2.53;;;11.50;99.90;;;;;;5052453;28;20047;-84
2023/06/01 04:24:12;;;;;;;10.50;2.58;;;11.50;99.90;;;;;;5052374;28;20048;-83
2023/06/01 04:26:38;;;;;;;7.75;2.50;;;11.50;99.90;;;;;;5069668;28;20119;-84
2023/06/01 04:29:04;;;;;;;10.05;2.33;;;11.60;99.90;;;;;;5052019;28;20488;-83
2023/06/01 04:31:32;;;;;;;4.85;1.63;;;11.50;99.90;;;;;;5052269;28;20126;-84
2023/06/01 04:34:01;;;;;;;4.45;1.63;;;12.20;99.90;;;;;;5040900;28;20535;-83
2023/06/01 04:36:28;;;;;;;3.63;1.50;;;11.40;99.90;;;;;;5058762;28;20040;-83
2023/06/01 04:38:54;;;;;;;8.05;2.08;;;11.40;99.90;;;;;;5075969;28;20124;-83
2023/06/01 04:41:27;;;;;;;7.70;2.22;;;11.40;99.90;;;;;;5058794;28;20048;-83
2023/06/01 04:43:53;;;;;;;6.35;1.88;;;11.40;99.90;;;;;;5055223;28;20040;-83
2023/06/01 04:46:21;;;;;;;5.95;2.00;;;11.40;99.90;;;;;;5051741;28;20058;-83
2023/06/01 04:48:47;;;;;;;6.38;1.73;;;11.30;99.90;;;;;;5052448;28;20044;-85
2023/06/01 04:51:19;;;;;;;5.22;1.73;;;11.40;99.90;;;;;;5069515;28;20461;-83
2023/06/01 04:53:51;;;;;;;4.43;1.60;;;11.40;99.90;;;;;;5067768;28;20090;-83
2023/06/01 04:56:26;;;;;;;5.80;1.77;;;11.40;99.90;;;;;;5068479;28;20071;-82
2023/06/01 04:58:53;;;;;;;10.73;2.38;;;11.50;99.90;;;;;;5047953;28;20049;-82
2023/06/01 05:01:20;;;;;;;5.68;2.10;;;11.50;99.90;;;;;;5031877;28;20041;-82
2023/06/01 05:03:46;;;;;;;8.65;1.65;;;11.50;99.90;;;;;;5066685;28;20476;-82
2023/06/01 05:06:13;;;;;;;5.72;2.05;;;11.50;99.90;;;;;;5065772;28;20047;-82
2023/06/01 05:08:39;;;;;;;4.07;2.20;;;11.50;99.90;;;;;;5048385;28;20044;-81
2023/06/01 05:11:06;;;;;;;7.25;1.85;;;11.60;99.90;;;;;;5066534;28;20369;-82
2023/06/01 05:13:35;;;;;;;5.85;2.25;;;11.60;99.90;;;;;;5048442;28;20439;-82
2023/06/01 05:16:01;;;;;;;5.80;2.63;;;11.80;99.90;;;;;;5047980;28;20048;-83
2023/06/01 05:18:27;;;;;;;3.35;1.90;;;11.50;99.90;;;;;;5065207;28;20123;-83
2023/06/01 05:20:52;;;;;;;7.40;2.10;;;11.60;99.90;;;;;;5014627;28;20127;-83
2023/06/01 05:23:18;;;;;;;14.00;2.67;;;11.60;99.90;;;;;;5047741;28;20509;-82
2023/06/01 05:25:45;;;;;;;6.82;2.10;;;11.60;99.90;;;;;;5064675;28;20045;-83
2023/06/01 05:28:11;;;;;;;6.30;2.42;;;11.60;99.90;;;;;;5047784;28;20098;-82
2023/06/01 05:30:36;;;;;;;12.18;2.58;;;11.60;99.90;;;;;;5048376;28;20048;-82
2023/06/01 05:33:03;;;;;;;4.50;2.35;;;11.60;99.90;;;;;;5064630;28;20036;-83
2023/06/01 05:35:29;;;;;;;6.25;2.20;;;11.70;99.90;;;;;;5066381;28;20134;-82
2023/06/01 05:37:55;;;;;;;3.88;2.08;;;12.50;99.90;;;;;;5064313;28;20049;-82
2023/06/01 05:40:21;;;;;;;5.60;2.05;;;12.60;99.90;;;;;;5047642;28;20047;-82
2023/06/01 05:42:46;;;;;;;4.70;1.80;;;11.70;99.90;;;;;;5047634;28;20045;-82
2023/06/01 05:45:12;;;;;;;5.53;1.83;;;11.70;99.90;;;;;;5047198;28;20081;-82
2023/06/01 05:47:38;;;;;;;3.58;1.40;;;11.70;99.90;;;;;;5047789;28;20121;-82
2023/06/01 05:50:04;;;;;;;3.50;1.75;;;11.70;99.90;;;;;;5047254;28;20152;-83
2023/06/01 05:52:30;;;;;;;5.85;1.83;;;11.80;99.90;;;;;;5047368;28;20046;-82
2023/06/01 05:54:56;;;;;;;5.05;2.00;;;11.80;99.90;;;;;;5064335;28;20459;-83
2023/06/01 05:57:22;;;;;;;3.22;1.35;;;11.80;99.90;;;;;;5047116;28;20047;-82
2023/06/01 05:59:48;;;;;;;2.92;1.70;;;11.80;99.90;;;;;;5046945;28;20056;-82
2023/06/01 06:02:14;;;;;;;6.50;1.83;;;11.80;99.90;;;;;;5046714;28;20059;-82
2023/06/01 06:04:40;;;;;;;5.28;1.58;;;11.80;99.90;;;;;;5063677;28;20040;-82
2023/06/01 06:07:06;;;;;;;3.50;1.50;;;11.90;99.90;;;;;;5063252;28;20136;-82
2023/06/01 06:09:31;;;;;;;3.33;1.80;;;11.90;99.90;;;;;;5029901;28;20075;-83
2023/06/01 06:11:57;;;;;;;6.75;1.60;;;11.90;99.90;;;;;;5063555;28;20206;-81
2023/06/01 06:14:23;;;;;;;6.43;1.30;;;11.90;99.90;;;;;;5063047;28;20361;-82
2023/06/01 06:16:49;;;;;;;4.35;1.42;;;11.90;99.90;;;;;;5030672;28;20484;-82
2023/06/01 06:19:16;;;;;;;1.83;1.08;;;11.90;99.90;;;;;;5047571;28;20400;-82
2023/06/01 06:21:42;;;;;;;2.63;0.98;;;12.00;99.90;;;;;;5030936;28;20097;-82
2023/06/01 06:24:08;;;;;;;3.20;1.02;;;12.20;99.90;;;;;;5046932;28;20060;-82
2023/06/01 06:26:34;;;;;;;2.60;1.55;;;12.00;99.90;;;;;;5065391;28;20040;-81
2023/06/01 06:28:59;;;;;;;2.13;0.75;;;12.10;99.90;;;;;;5064561;28;20130;-81
2023/06/01 06:31:25;;;;;;;1.70;0.60;;;12.10;99.90;;;;;;5063113;28;20078;-81
2023/06/01 06:33:52;;;;;;;2.03;0.90;;;12.10;99.90;;;;;;5063584;28;20051;-81
2023/06/01 06:36:17;;;;;;;1.50;0.60;;;13.20;99.90;;;;;;5046655;28;20047;-81
2023/06/01 06:38:44;;;;;;;4.07;0.90;;;12.20;99.90;;;;;;5047062;28;20499;-82
2023/06/01 06:41:10;;;;;;;2.60;0.90;;;12.20;99.90;;;;;;5046607;28;20036;-82
2023/06/01 06:43:36;;;;;;;4.15;0.93;;;12.20;99.90;;;;;;5062795;28;20083;-82
2023/06/01 06:46:03;;;;;;;2.65;0.80;;;12.20;99.90;;;;;;5013935;28;20079;-81
2023/06/01 06:48:28;;;;;;;2.40;0.98;;;12.20;99.90;;;;;;5063021;28;20076;-81
2023/06/01 06:50:55;;;;;;;2.92;1.40;;;12.20;99.90;;;;;;5046353;28;20530;-81
2023/06/01 06:53:21;;;;;;;4.43;1.27;;;12.10;99.90;;;;;;5045980;28;20085;-82
2023/06/01 06:55:47;;;;;;;4.32;1.38;;;12.10;99.90;;;;;;5047095;28;20040;-81
2023/06/01 06:58:13;;;;;;;6.50;1.05;;;12.10;99.90;;;;;;5046710;28;20040;-82
2023/06/01 07:00:43;;;;;;;2.30;0.95;;;12.20;99.90;;;;;;5029849;28;20117;-83
2023/06/01 07:03:10;;;;;;;2.40;0.95;;;12.20;99.90;;;;;;5046480;28;20044;-82
2023/06/01 07:05:35;;;;;;;5.07;1.55;;;12.20;99.90;;;;;;5028818;28;20045;-82
2023/06/01 07:08:01;;;;;;;2.15;1.13;;;12.20;99.90;;;;;;5046635;28;20400;-81
2023/06/01 07:10:27;;;;;;;1.08;0.88;;;11.30;99.90;;;;;;5046704;28;20075;-81
2023/06/01 07:12:53;;;;;;;2.58;1.25;;;12.10;99.90;;;;;;5030183;28;20198;-82
2023/06/01 07:15:18;;;;;;;5.97;1.35;;;12.20;99.90;;;;;;5045694;28;20433;-82
2023/06/01 07:17:44;;;;;;;3.50;1.20;;;12.20;99.90;;;;;;5062874;28;20182;-82
2023/06/01 07:20:13;;;;;;;2.83;1.40;;;12.20;99.90;;;;;;5063249;28;20075;-82
2023/06/01 07:22:39;;;;;;;6.93;1.50;;;12.20;99.90;;;;;;5061518;28;20178;-82
2023/06/01 07:25:07;;;;;;;4.90;1.40;;;12.30;99.90;;;;;;5062375;28;20076;-81
2023/06/01 07:27:35;;;;;;;4.38;1.48;;;11.80;99.90;;;;;;5061373;28;20055;-82
2023/06/01 07:30:02;;;;;;;6.07;1.30;;;13.10;99.90;;;;;;5045785;28;20091;-82
2023/06/01 07:32:28;;;;;;;3.65;1.30;;;12.50;99.90;;;;;;5044602;28;20141;-81
2023/06/01 07:34:57;;;;;;;4.38;1.77;;;12.50;99.90;;;;;;5045495;28;20091;-82
2023/06/01 07:37:26;;;;;;;3.72;1.73;;;12.50;99.90;;;;;;5029714;28;20135;-82
2023/06/01 07:39:51;;;;;;;4.28;1.83;;;12.50;99.90;;;;;;5061348;28;20043;-82
2023/06/01 07:42:18;;;;;;;5.55;1.52;;;12.40;99.90;;;;;;5062160;28;20040;-82
2023/06/01 07:44:45;;;;;;;8.32;1.75;;;12.40;99.90;;;;;;5062838;28;20056;-81
2023/06/01 07:47:11;;;;;;;7.00;1.38;;;12.40;99.90;;;;;;5067038;28;20036;-82
2023/06/01 07:49:37;;;;;;;5.97;1.58;;;12.40;99.90;;;;;;5049996;28;20064;-82
2023/06/01 07:52:04;;;;;;;4.10;1.60;;;13.20;99.90;;;;;;5066979;28;20072;-82
2023/06/01 07:54:31;;;;;;;6.03;2.22;;;12.40;99.90;;;;;;5050451;28;20136;-82
2023/06/01 07:56:57;;;;;;;4.65;0.88;;;11.00;99.90;;;;;;5065539;28;20048;-82
2023/06/01 07:59:27;;;;;;;3.50;0.90;;;12.50;99.90;;;;;;5067055;28;20056;-81
2023/06/01 08:01:55;;;;;;;1.55;0.50;;;12.50;99.90;;;;;;5065464;28;20127;-82
2023/06/01 08:04:20;;;;;;;0.63;0.38;;;12.60;99.90;;;;;;5066712;28;20132;-82
2023/06/01 08:06:47;;;;;;;5.75;0.85;;;13.00;99.90;;;;;;5049005;28;20104;-82
2023/06/01 08:09:13;;;;;;;1.67;0.75;;;12.70;99.90;;;;;;5050320;28;20397;-82
2023/06/01 08:11:44;;;;;;;3.65;0.52;;;12.70;99.90;;;;;;5050763;28;20052;-82
2023/06/01 08:14:11;;;;;;;0.82;0.60;;;13.30;99.90;;;;;;5065903;28;20040;-82
2023/06/01 08:16:37;;;;;;;5.82;1.35;;;12.80;99.90;;;;;;5050525;28;20128;-82
2023/06/01 08:19:03;;;;;;;3.42;1.40;;;12.60;99.90;;;;;;5048539;28;20503;-82
2023/06/01 08:21:29;;;;;;;7.35;1.55;;;12.70;99.90;;;;;;5049752;28;20095;-81
2023/06/01 08:23:55;;;;;;;2.08;1.23;;;12.60;99.90;;;;;;5049181;28;20434;-81
2023/06/01 08:26:21;;;;;;;2.13;1.10;;;12.70;99.90;;;;;;5033721;28;20159;-81
2023/06/01 08:28:53;;;;;;;5.78;1.83;;;12.60;99.90;;;;;;5048639;28;20052;-81
2023/06/01 08:31:20;;;;;;;9.45;1.98;;;12.70;99.90;;;;;;5049984;28;20055;-81
2023/06/01 08:33:47;;;;;;;5.88;1.70;;;12.70;99.90;;;;;;5066223;28;20133;-81
2023/06/01 08:36:12;;;;;;;7.25;2.00;;;12.70;99.90;;;;;;5064786;28;20045;-81
2023/06/01 08:38:39;;;;;;;10.13;2.25;;;12.80;99.90;;;;;;5067758;28;20050;-81
2023/06/01 08:41:24;;;;;;;7.47;1.77;;;12.80;99.90;;;;;;5065378;28;20044;-81
2023/06/01 08:44:10;;;;;;;11.70;2.08;;;12.80;99.90;;;;;;5069432;28;20058;-81
2023/06/01 08:46:36;;;;;;;7.32;2.00;;;12.80;99.90;;;;;;5070745;28;20048;-82
2023/06/01 08:49:02;;;;;;;5.68;1.83;;;12.70;99.90;;;;;;5052558;28;20044;-82
2023/06/01 08:51:31;;;;;;;7.05;1.65;;;12.70;99.90;;;;;;5068609;28;20049;-82
2023/06/01 08:53:59;;;;;;;7.47;2.20;;;12.60;99.90;;;;;;5065960;28;20377;-82
2023/06/01 08:56:27;;;;;;;6.90;1.38;;;12.60;99.90;;;;;;5066611;28;20054;-82
2023/06/01 08:58:53;;;;;;;4.45;1.13;;;12.70;99.90;;;;;;5066099;28;20087;-81
2023/06/01 09:01:21;;;;;;;5.38;1.40;;;12.80;99.90;;;;;;5052192;28;20047;-81
2023/06/01 09:03:53;;;;;;;3.80;1.05;;;12.80;99.90;;;;;;5052078;28;20097;-81
2023/06/01 09:06:19;;;;;;;7.25;1.35;;;12.80;99.90;;;;;;5068066;28;20119;-80
2023/06/01 09:08:45;;;;;;;5.10;1.48;;;12.90;99.90;;;;;;5069335;28;20083;-81
2023/06/01 09:11:11;;;;;;;3.95;1.02;;;13.00;99.90;;;;;;5051430;28;20595;-80
2023/06/01 09:13:39;;;;;;;3.38;1.20;;;13.00;99.90;;;;;;5053303;28;20052;-81
2023/06/01 09:16:06;;;;;;;4.63;1.30;;;13.10;99.90;;;;;;5068632;28;20384;-80
2023/06/01 09:18:31;;;;;;;3.15;1.17;;;13.20;99.90;;;;;;5086987;28;20044;-80
2023/06/01 09:21:10;;;;;;;2.40;1.20;;;13.30;99.90;;;;;;5068543;28;20052;-80
2023/06/01 09:23:37;;;;;;;5.57;0.90;;;13.30;99.90;;;;;;5086342;28;20085;-80
2023/06/01 09:26:05;;;;;;;4.25;1.00;;;13.40;99.90;;;;;;5087780;28;20044;-81
2023/06/01 09:28:54;;;;;;;6.35;1.13;;;13.40;99.90;;;;;;5086429;28;20380;-81
2023/06/01 09:31:44;;;;;;;4.57;1.50;;;13.40;99.90;;;;;;5052576;28;20032;-83
2023/06/01 09:34:19;;;;;;;4.70;1.10;;;13.40;99.90;;;;;;5086099;28;20055;-81
2023/06/01 09:36:46;;;;;;;8.65;1.50;;;13.50;99.90;;;;;;5067205;28;20044;-81
2023/06/01 09:39:14;;;;;;;5.63;1.08;;;13.40;99.90;;;;;;5068487;28;20044;-81
2023/06/01 09:41:46;;;;;;;8.00;1.20;;;13.40;99.90;;;;;;5067052;28;20048;-81
2023/06/01 09:44:13;;;;;;;8.02;1.30;;;13.30;99.90;;;;;;5068163;28;20055;-82
2023/06/01 09:46:49;;;;;;;;;;;13.40;99.90;;;;;;5069165;28;20142;-82
2023/06/01 09:49:30;;;;;;;6.35;1.90;;;13.30;99.90;;;;;;5067245;28;19920;-83
2023/06/01 09:52:05;;;;;;;8.32;1.48;;;13.30;99.90;;;;;;5052185;28;20032;-82
2023/06/01 09:54:37;;;;;;;2.95;0.80;;;13.40;99.90;;;;;;5085306;28;20089;-82
2023/06/01 09:57:04;;;;;;;10.50;1.10;;;13.40;99.90;;;;;;5050991;28;20536;-82
2023/06/01 09:59:46;;;;;;;6.88;1.42;;;13.40;99.90;;;;;;5085278;28;20055;-82
2023/06/01 10:02:21;;;;;;;5.55;1.00;;;13.60;99.90;;;;;;5067143;28;20040;-81
2023/06/01 10:04:55;;;;;;;6.38;2.03;;;13.60;99.90;;;;;;5086152;28;20495;-80
2023/06/01 10:07:23;;;;;;;3.13;1.30;;;13.70;99.90;;;;;;5066399;28;20040;-82
2023/06/01 10:09:54;;;;;;;7.15;1.38;;;13.80;99.90;;;;;;5085575;28;20059;-82
2023/06/01 10:12:21;;;;;;;5.10;1.55;;;13.80;99.90;;;;;;5049566;28;20487;-82
2023/06/01 10:14:48;;;;;;;4.20;1.95;;;13.70;99.90;;;;;;5065668;28;20052;-82
2023/06/01 10:17:16;;;;;;;8.65;1.73;;;13.70;99.90;;;;;;5049339;28;20055;-82
2023/06/01 10:19:42;;;;;;;3.13;1.55;;;13.80;99.90;;;;;;5065687;28;20122;-82
2023/06/01 10:22:10;;;;;;;4.45;1.05;;;13.80;99.90;;;;;;5049178;28;20206;-82
2023/06/01 10:24:40;;;;;;;8.15;1.58;;;13.80;99.90;;;;;;5065707;28;20044;-82
2023/06/01 10:27:06;;;;;;;6.82;1.48;;;13.90;99.90;;;;;;5067760;28;20055;-82
2023/06/01 10:29:33;;;;;;;6.03;1.85;;;14.00;99.90;;;;;;5084807;28;20399;-82
2023/06/01 10:31:59;;;;;;;4.20;1.25;;;14.00;99.90;;;;;;5085009;28;20114;-82
2023/06/01 10:34:42;;;;;;;7.72;1.50;;;14.20;99.90;;;;;;5050206;28;20051;-83
2023/06/01 10:37:08;;;;;;;6.40;1.00;;;14.20;99.90;;;;;;5066402;28;20431;-83
2023/06/01 10:39:34;;;;;;;4.05;1.15;;;14.30;99.90;;;;;;5050789;28;20043;-82
2023/06/01 10:42:12;;;;;;;3.83;1.20;;;14.30;99.90;;;;;;5066395;28;20048;-82
2023/06/01 10:44:47;;;;;;;5.97;1.20;;;14.40;99.90;;;;;;5065800;28;20415;-82
2023/06/01 10:47:13;;;;;;;4.97;1.50;;;14.40;99.90;;;;;;5049602;28;20430;-81
2023/06/01 10:49:51;;;;;;;5.30;1.38;;;14.50;99.90;;;;;;5065283;28;20040;-82
2023/06/01 10:52:40;;;;;;;4.88;1.92;;;14.60;99.90;;;;;;5049608;28;20389;-82
2023/06/01 10:55:05;;;;;;;7.07;2.67;;;14.60;99.90;;;;;;5065927;28;20484;-82
2023/06/01 10:57:35;;;;;;;6.35;1.00;;;14.80;99.90;;;;;;5065581;28;20060;-81
2023/06/01 11:00:14;;;;;;;3.70;1.10;;;14.90;99.90;;;;;;5048840;28;20052;-82
2023/06/01 11:02:55;;;;;;;2.92;0.98;;;15.00;99.90;;;;;;5065236;28;20059;-82
2023/06/01 11:05:42;;;;;;;5.70;1.10;;;15.10;99.90;;;;;;5049032;28;20044;-82
2023/06/01 11:08:17;;;;;;;9.02;1.23;;;15.20;99.90;;;;;;5065298;28;20155;-83
2023/06/01 11:10:58;;;;;;;5.45;1.08;;;15.10;99.90;;;;;;5065366;28;20048;-82
2023/06/01 11:13:27;;;;;;;9.15;1.27;;;15.20;99.90;;;;;;5065680;28;20062;-81
2023/06/01 11:16:14;;;;;;;5.93;1.02;;;14.90;99.90;;;;;;5064943;28;20422;-81
2023/06/01 11:18:59;;;;;;;4.32;1.00;;;15.20;99.90;;;;;;5065309;28;20052;-81
2023/06/01 11:21:30;;;;;;;3.83;0.80;;;15.20;99.90;;;;;;5065278;28;20135;-81
2023/06/01 11:24:00;;;;;;;7.45;1.40;;;15.30;99.90;;;;;;5082972;28;20040;-82
2023/06/01 11:26:41;;;;;;;4.90;1.13;;;15.30;99.90;;;;;;5066031;28;20044;-82
2023/06/01 11:29:15;;;;;;;6.55;1.23;;;15.30;99.90;;;;;;5083486;28;20044;-81
2023/06/01 11:31:54;;;;;;;5.70;1.20;;;15.30;99.90;;;;;;5048094;28;20044;-81
2023/06/01 11:34:26;;;;;;;5.70;1.15;;;15.10;99.90;;;;;;5084329;28;20422;-82
2023/06/01 11:36:55;;;;;;;5.28;1.60;;;15.00;99.90;;;;;;5082920;28;20044;-81
2023/06/01 11:39:22;;;;;;;7.65;1.40;;;14.80;99.90;;;;;;5065525;28;20090;-81
2023/06/01 11:41:49;;;;;;;4.50;1.83;;;14.70;99.90;;;;;;5065084;28;20094;-80
2023/06/01 11:44:15;;;;;;;5.63;1.55;;;14.70;99.90;;;;;;5065429;28;20036;-81
2023/06/01 11:46:56;;;;;;;3.97;1.77;;;14.60;99.90;;;;;;5048823;28;20044;-81
2023/06/01 11:49:22;;;;;;;5.47;1.80;;;14.60;99.90;;;;;;5065240;28;20048;-81
2023/06/01 11:51:48;;;;;;;4.38;1.30;;;14.50;99.90;;;;;;5049359;28;20132;-81
2023/06/01 11:54:14;;;;;;;11.27;1.75;;;14.50;99.90;;;;;;5065541;28;20180;-81
2023/06/01 11:56:40;;;;;;;6.68;1.60;;;14.50;99.90;;;;;;5064802;28;20143;-81
2023/06/01 11:59:10;;;;;;;8.85;2.13;;;14.50;99.90;;;;;;5032293;28;20048;-81
2023/06/01 12:01:42;;;;;;;2.22;1.38;;;14.60;99.90;;;;;;5065502;28;20381;-81
2023/06/01 12:04:25;;;;;;;8.32;1.10;;;14.70;99.90;;;;;;5049294;28;20558;-81
2023/06/01 12:06:51;;;;;;;6.60;1.80;;;14.70;99.90;;;;;;5065451;28;20411;-81
2023/06/01 12:09:20;;;;;;;2.75;1.25;;;14.70;99.90;;;;;;5066145;28;20048;-80
2023/06/01 12:11:46;;;;;;;4.03;1.63;;;14.60;99.90;;;;;;5065174;28;20043;-81
2023/06/01 12:14:13;;;;;;;2.75;1.17;;;14.50;99.90;;;;;;5049166;28;20454;-81
2023/06/01 12:16:54;;;;;;;3.50;1.65;;;14.50;99.90;;;;;;5065776;28;20102;-83
2023/06/01 12:19:21;;;;;;;8.73;1.80;;;14.40;99.90;;;;;;5031373;28;20055;-82
2023/06/01 12:21:51;;;;;;;3.58;1.58;;;14.20;99.90;;;;;;5049827;28;20048;-82
2023/06/01 12:24:18;;;;;;;9.65;2.17;;;14.10;99.90;;;;;;5048247;28;20048;-82
2023/06/01 12:26:44;;;;;;;7.88;1.98;;;14.10;99.90;;;;;;5084020;28;20037;-81
2023/06/01 12:29:10;;;;;;;4.22;1.70;;;14.10;99.90;;;;;;5065947;28;20074;-82
2023/06/01 12:31:36;;;;;;;5.07;2.22;;;14.00;99.90;;;;;;5083423;28;20093;-82
2023/06/01 12:34:02;;;;;;;6.15;1.90;;;13.90;99.90;;;;;;5053363;28;20051;-81
2023/06/01 12:36:35;;;;;;;7.28;1.60;;;13.90;99.90;;;;;;5067757;28;20056;-82
2023/06/01 12:39:03;;;;;;;11.40;1.80;;;13.70;99.90;;;;;;5053032;28;20074;-81
2023/06/01 12:41:29;;;;;;;7.00;3.10;;;13.70;99.90;;;;;;5067834;28;20048;-83
2023/06/01 12:43:56;;;;;;;6.13;1.70;;;13.70;99.90;;;;;;5049541;28;20040;-83
2023/06/01 12:46:24;;;;;;;6.07;1.83;;;13.00;99.90;;;;;;5049718;28;20139;-83
2023/06/01 12:48:52;;;;;;;12.05;1.90;;;13.70;99.90;;;;;;5051336;28;20312;-82
2023/06/01 12:51:18;;;;;;;9.32;2.25;;;13.80;99.90;;;;;;5052569;28;20048;-83
2023/06/01 12:53:45;;;;;;;5.40;1.45;;;13.80;99.90;;;;;;5051507;28;20101;-82